Time;durP1;ratioP1;P1;durP2;ratioP2;P2;SDS_P1;SDS_P2;PMS_P1;PMS_P2;Temp;Humidity;BMP_temperature;BMP_pressure;BME280_temperature;BME280_humidity;BME280_pressure;Samples;Min_cycle;Max_cycle;Signal;HPM_P1;HPM_P2
2022/09/24 00:05:08;;;;;;;13.00;10.10;;;13.50;99.90;;;;;;2614150;54;20842;-74
2022/09/24 00:10:56;;;;;;;11.40;10.40;;;13.30;99.90;;;;;;2614322;54;20487;-72
2022/09/24 00:16:44;;;;;;;15.00;10.70;;;13.20;99.90;;;;;;2614249;39;20562;-71
2022/09/24 00:32:09;;;;;;;17.50;12.30;;;13.30;99.90;;;;;;2613652;54;20382;-70
2022/09/24 00:37:57;;;;;;;12.47;11.17;;;13.30;99.90;;;;;;2612263;54;20170;-74
2022/09/24 00:43:47;;;;;;;12.57;11.20;;;13.30;99.90;;;;;;2613482;54;20146;-69
2022/09/24 00:49:34;;;;;;;11.50;10.57;;;13.30;99.90;;;;;;2613457;54;20403;-73
2022/09/24 00:55:23;;;;;;;12.13;10.60;;;13.40;99.90;;;;;;2613216;31;20641;-73
2022/09/24 01:01:11;;;;;;;16.43;13.60;;;13.20;99.90;;;;;;2613471;54;20440;-72
2022/09/24 01:07:00;;;;;;;14.50;13.03;;;13.50;99.90;;;;;;2612619;54;20182;-71
2022/09/24 01:35:59;;;;;;;20.00;13.20;;;13.40;99.90;;;;;;2611578;54;20798;-71
2022/09/24 01:41:48;;;;;;;17.27;13.60;;;13.30;99.90;;;;;;2612188;54;20436;-71
2022/09/24 01:47:38;;;;;;;15.83;13.27;;;13.30;99.90;;;;;;2613269;54;20398;-73
2022/09/24 01:53:30;;;;;;;15.85;13.85;;;13.30;99.90;;;;;;2613606;54;20452;-71
2022/09/24 02:05:46;;;;;;;15.50;14.00;;;13.20;99.90;;;;;;2612800;54;20410;-73
2022/09/24 02:11:36;;;;;;;17.75;15.18;;;13.20;99.90;;;;;;2615130;54;20394;-72
2022/09/24 02:17:26;;;;;;;18.47;15.27;;;13.20;99.90;;;;;;2614270;54;20365;-72
2022/09/24 02:23:15;;;;;;;21.07;14.80;;;13.10;99.90;;;;;;2614089;54;20426;-72
2022/09/24 02:29:04;;;;;;;18.00;15.73;;;13.10;99.90;;;;;;2614328;39;20751;-70
2022/09/24 02:32:07;;;;;;;16.77;14.97;;;13.10;99.90;;;;;;2613649;39;20782;-72
2022/09/24 02:34:42;;;;;;;16.87;15.10;;;13.10;99.90;;;;;;2614484;54;20502;-71
2022/09/24 02:40:30;;;;;;;20.93;18.70;;;13.10;99.90;;;;;;2612094;54;22228;-73
2022/09/24 02:46:18;;;;;;;22.57;18.27;;;13.00;99.90;;;;;;2614294;54;21083;-71
2022/09/24 02:52:05;;;;;;;21.87;19.10;;;13.20;99.90;;;;;;2615196;39;20558;-72
2022/09/24 02:57:53;;;;;;;27.33;20.07;;;13.40;99.90;;;;;;2610566;54;20263;-73
2022/09/24 03:03:41;;;;;;;23.40;20.90;;;13.40;99.90;;;;;;2614230;39;20567;-73
2022/09/24 03:09:29;;;;;;;27.30;21.17;;;13.30;99.90;;;;;;2612469;54;20679;-73
2022/09/24 03:15:16;;;;;;;24.33;21.80;;;13.40;99.90;;;;;;2613840;54;20134;-72
2022/09/24 03:21:07;;;;;;;24.02;21.10;;;13.30;99.90;;;;;;2614510;54;20162;-73
2022/09/24 03:24:03;;;;;;;23.67;20.53;;;13.30;99.90;;;;;;2612096;54;20151;-73
2022/09/24 03:26:29;;;;;;;23.77;21.23;;;13.30;99.90;;;;;;2612220;54;20415;-73
2022/09/24 03:32:17;;;;;;;30.23;21.13;;;13.40;99.90;;;;;;2614316;54;20139;-72
2022/09/24 03:38:04;;;;;;;27.87;21.70;;;13.20;99.90;;;;;;2612866;54;20787;-73
2022/09/24 03:43:52;;;;;;;32.97;23.83;;;13.20;99.90;;;;;;2614863;54;20158;-73
2022/09/24 03:49:39;;;;;;;27.20;21.37;;;13.20;99.90;;;;;;2614013;54;20146;-73
2022/09/24 03:55:27;;;;;;;35.60;24.73;;;13.30;99.90;;;;;;2613506;54;20134;-73
2022/09/24 04:01:19;;;;;;;28.10;23.13;;;13.20;99.90;;;;;;2613274;54;20139;-73
2022/09/24 04:07:07;;;;;;;29.90;25.17;;;13.00;99.90;;;;;;2614384;54;20367;-74
2022/09/24 04:12:55;;;;;;;31.00;26.87;;;13.00;99.90;;;;;;2614072;54;20157;-74
2022/09/24 04:18:43;;;;;;;26.43;23.00;;;12.80;99.90;;;;;;2614376;54;20417;-73
2022/09/24 04:28:33;;;;;;;28.90;21.30;;;12.90;99.90;;;;;;2614355;54;20391;-74
2022/09/24 04:34:21;;;;;;;24.97;20.10;;;12.90;99.90;;;;;;2611680;54;20484;-72
2022/09/24 04:40:11;;;;;;;22.20;18.83;;;13.00;99.90;;;;;;2614042;54;20164;-72
2022/09/24 04:45:59;;;;;;;22.10;19.30;;;12.90;99.90;;;;;;2614804;54;20134;-72
2022/09/24 04:51:47;;;;;;;22.43;19.60;;;12.90;99.90;;;;;;2612995;54;20495;-73
2022/09/24 04:57:35;;;;;;;21.75;18.08;;;12.90;99.90;;;;;;2614523;54;20153;-74
2022/09/24 05:03:23;;;;;;;21.13;18.30;;;12.80;99.90;;;;;;2613716;54;20184;-73
2022/09/24 05:09:10;;;;;;;20.33;17.90;;;12.90;99.90;;;;;;2613187;54;20162;-74
2022/09/24 05:14:58;;;;;;;22.60;18.20;;;12.80;99.90;;;;;;2613338;54;20977;-74
2022/09/24 05:20:46;;;;;;;21.40;18.00;;;12.70;99.90;;;;;;2613518;54;20122;-74
2022/09/24 05:24:03;;;;;;;21.80;18.93;;;12.70;99.90;;;;;;2614363;54;20410;-73
2022/09/24 05:32:35;;;;;;;27.97;21.30;;;12.60;99.90;;;;;;2612511;54;20394;-74
2022/09/24 05:38:23;;;;;;;29.77;21.10;;;12.90;99.90;;;;;;2609767;54;20149;-75
2022/09/24 05:44:11;;;;;;;25.10;20.80;;;12.70;99.90;;;;;;2613630;54;20398;-73
2022/09/24 05:49:59;;;;;;;24.33;20.08;;;12.70;99.90;;;;;;2605937;54;20151;-73
2022/09/24 05:55:47;;;;;;;26.23;20.08;;;12.70;99.90;;;;;;2607705;54;20451;-73
2022/09/24 06:01:35;;;;;;;26.67;20.58;;;12.70;99.90;;;;;;2608675;54;20242;-73
2022/09/24 06:07:22;;;;;;;21.40;18.90;;;12.90;99.90;;;;;;2611538;54;20138;-74
2022/09/24 06:13:13;;;;;;;27.77;18.17;;;13.20;99.90;;;;;;2610968;54;20523;-73
2022/09/24 06:19:00;;;;;;;22.63;18.27;;;13.30;99.90;;;;;;2610441;54;20350;-74
2022/09/24 06:28:35;;;;;;;23.10;20.07;;;13.20;99.90;;;;;;2609155;54;20370;-73
2022/09/24 06:34:23;;;;;;;23.87;18.63;;;13.40;99.90;;;;;;2612242;54;20375;-73
2022/09/24 06:40:11;;;;;;;25.20;20.33;;;13.30;99.90;;;;;;2612741;54;20255;-73
2022/09/24 06:45:59;;;;;;;21.43;17.90;;;13.30;99.90;;;;;;2611061;54;20162;-73
2022/09/24 06:51:47;;;;;;;23.00;18.00;;;13.30;99.90;;;;;;2610771;54;20123;-72
2022/09/24 06:57:34;;;;;;;23.10;20.60;;;13.60;99.90;;;;;;2614271;54;20652;-74
2022/09/24 07:03:22;;;;;;;28.43;18.80;;;13.80;99.90;;;;;;2611057;54;20138;-72
2022/09/24 07:09:10;;;;;;;22.67;20.40;;;14.00;99.90;;;;;;2612422;54;20135;-74
2022/09/24 07:14:59;;;;;;;30.43;20.07;;;14.20;99.90;;;;;;2611750;54;20134;-73
2022/09/24 07:20:57;;;;;;;28.07;20.70;;;14.40;99.90;;;;;;2615452;54;20511;-73
2022/09/24 07:24:00;;;;;;;23.30;20.50;;;14.50;99.90;;;;;;2612798;39;20511;-72
2022/09/24 07:26:31;;;;;;;25.23;19.40;;;14.50;99.90;;;;;;2614421;54;20526;-75
2022/09/24 07:32:18;;;;;;;28.93;18.77;;;14.70;99.90;;;;;;2613072;54;20398;-72
2022/09/24 07:38:13;;;;;;;26.53;20.17;;;14.90;99.90;;;;;;2611908;54;20138;-72
2022/09/24 07:44:01;;;;;;;27.23;19.60;;;14.70;99.90;;;;;;2615345;54;20961;-73
2022/09/24 07:49:49;;;;;;;23.17;20.60;;;14.70;99.90;;;;;;2615425;54;20483;-72
2022/09/24 07:55:39;;;;;;;27.70;19.97;;;15.10;99.90;;;;;;2613492;46;20150;-73
2022/09/24 08:01:27;;;;;;;25.57;20.60;;;15.00;99.90;;;;;;2613806;54;20158;-72
2022/09/24 08:07:14;;;;;;;24.37;19.03;;;15.10;99.90;;;;;;2613793;54;20134;-73
2022/09/24 08:13:02;;;;;;;21.60;19.17;;;15.10;99.90;;;;;;2613818;54;20122;-74
2022/09/24 08:18:50;;;;;;;20.37;17.47;;;15.20;99.90;;;;;;2614778;54;20416;-73
2022/09/24 08:28:40;;;;;;;22.17;17.17;;;16.00;99.90;;;;;;2614347;54;20451;-72
2022/09/24 08:34:28;;;;;;;20.57;18.43;;;16.30;99.90;;;;;;2613499;54;20500;-73
2022/09/24 08:40:25;;;;;;;21.57;16.27;;;16.50;99.90;;;;;;2611911;54;20147;-72
2022/09/24 08:52:31;;;;;;;17.07;15.27;;;16.70;99.90;;;;;;2610630;54;20416;-73
2022/09/24 08:58:30;;;;;;;17.60;15.67;;;17.20;99.90;;;;;;2608619;54;20372;-73
2022/09/24 09:04:27;;;;;;;17.67;15.33;;;16.90;99.90;;;;;;2610595;54;20431;-73
2022/09/24 09:36:35;;;;;;;13.77;9.20;;;18.30;99.90;;;;;;2611553;54;20186;-73
2022/09/24 09:42:31;;;;;;;13.13;10.50;;;18.10;95.30;;;;;;2612117;54;20417;-73
2022/09/24 09:48:23;;;;;;;10.47;9.37;;;18.20;91.50;;;;;;2611859;54;20845;-73
2022/09/24 09:54:10;;;;;;;12.03;10.40;;;17.90;92.70;;;;;;2611507;54;20964;-73
2022/09/24 09:59:58;;;;;;;13.77;12.20;;;18.20;87.00;;;;;;2613637;54;20387;-73
2022/09/24 10:12:20;;;;;;;11.18;10.15;;;18.40;83.10;;;;;;2615415;54;20386;-71
2022/09/24 10:18:13;;;;;;;12.83;10.50;;;18.40;92.40;;;;;;2613570;54;20536;-75
2022/09/24 10:24:05;;;;;;;12.80;11.40;;;18.40;83.10;;;;;;2616020;39;20742;-72
2022/09/24 10:39:23;;;;;;;14.88;10.65;;;18.60;93.60;;;;;;2611334;54;20396;-72
2022/09/24 10:45:14;;;;;;;12.67;11.47;;;18.50;90.10;;;;;;2614420;54;20115;-73
2022/09/24 11:04:41;;;;;;;13.33;12.10;;;17.90;96.00;;;;;;2611523;54;20396;-72
2022/09/24 11:23:28;;;;;;;17.13;14.67;;;17.50;99.90;;;;;;2610935;46;20433;-73
2022/09/24 11:39:17;;;;;;;14.57;13.17;;;17.70;99.90;;;;;;2614169;54;20407;-73
2022/09/24 12:17:08;;;;;;;12.03;10.57;;;17.60;92.50;;;;;;2614991;54;20392;-72
2022/09/24 12:23:01;;;;;;;10.97;9.87;;;17.80;94.10;;;;;;2614119;54;21762;-72
2022/09/24 12:39:16;;;;;;;9.90;9.10;;;17.90;92.90;;;;;;2614655;54;20174;-72
2022/09/24 12:51:21;;;;;;;11.87;10.67;;;18.50;81.20;;;;;;2615133;39;20783;-73
2022/09/24 12:57:21;;;;;;;10.77;9.77;;;18.20;77.80;;;;;;2615142;54;20480;-73
2022/09/24 13:03:32;;;;;;;12.13;10.97;;;18.20;76.00;;;;;;2614657;54;20149;-73
2022/09/24 13:09:39;;;;;;;11.43;10.43;;;18.30;80.00;;;;;;2615376;54;20190;-74
2022/09/24 13:22:01;;;;;;;12.65;9.60;;;18.00;87.30;;;;;;2614019;39;20744;-71
2022/09/24 13:28:01;;;;;;;14.10;12.70;;;17.90;99.90;;;;;;2613648;39;20808;-72
2022/09/24 13:33:53;;;;;;;14.37;12.87;;;17.60;99.90;;;;;;2612815;54;20413;-73
2022/09/24 13:46:17;;;;;;;13.83;12.53;;;17.30;99.90;;;;;;2615269;54;20398;-73
2022/09/24 13:58:38;;;;;;;13.97;12.57;;;17.50;99.90;;;;;;2614713;54;20380;-72
2022/09/24 14:04:26;;;;;;;13.17;11.97;;;17.60;99.90;;;;;;2614680;54;20134;-73
2022/09/24 14:10:14;;;;;;;12.43;11.33;;;17.50;99.90;;;;;;2614973;54;20395;-72
2022/09/24 14:22:26;;;;;;;14.90;13.37;;;17.10;99.90;;;;;;2615785;54;20425;-72
2022/09/24 14:28:14;;;;;;;15.10;13.70;;;16.70;99.90;;;;;;2614616;54;20379;-73
2022/09/24 14:34:04;;;;;;;14.60;13.30;;;16.60;99.90;;;;;;2614401;39;20812;-73
2022/09/24 14:46:28;;;;;;;15.20;13.70;;;16.00;99.90;;;;;;2612523;54;20400;-72
2022/09/24 14:58:48;;;;;;;17.73;15.57;;;15.50;99.90;;;;;;2613719;54;20558;-73
2022/09/24 15:04:36;;;;;;;18.23;16.37;;;15.40;99.90;;;;;;2613693;46;20184;-74
2022/09/24 15:10:24;;;;;;;19.67;17.52;;;15.30;99.90;;;;;;2612332;39;21090;-71
2022/09/24 15:16:26;;;;;;;20.00;17.80;;;15.10;99.90;;;;;;2613547;54;20151;-71
2022/09/24 15:22:14;;;;;;;20.57;18.63;;;14.80;99.90;;;;;;2614203;54;20415;-71
2022/09/24 15:28:02;;;;;;;23.10;20.70;;;14.80;99.90;;;;;;2614313;54;20205;-71
2022/09/24 15:33:49;;;;;;;25.50;22.80;;;14.70;99.90;;;;;;2613121;54;20837;-73
2022/09/24 15:43:20;;;;;;;28.10;25.20;;;15.00;99.90;;;;;;2614173;54;20448;-71
2022/09/24 15:49:08;;;;;;;25.53;23.00;;;15.00;99.90;;;;;;2614199;46;20427;-73
2022/09/24 15:55:00;;;;;;;25.03;22.53;;;15.10;99.90;;;;;;2611814;54;20131;-70
2022/09/24 16:00:48;;;;;;;24.93;20.93;;;15.00;99.90;;;;;;2612819;54;20170;-70
2022/09/24 16:06:36;;;;;;;23.70;21.37;;;15.10;99.90;;;;;;2614016;54;20134;-71
2022/09/24 16:12:26;;;;;;;23.67;21.27;;;15.10;99.90;;;;;;2615283;31;20883;-71
2022/09/24 16:18:16;;;;;;;27.73;25.00;;;15.10;99.90;;;;;;2613242;54;20426;-72
2022/09/24 16:24:04;;;;;;;24.42;22.13;;;15.10;99.90;;;;;;2611199;39;20698;-69
2022/09/24 16:29:52;;;;;;;20.93;18.93;;;15.00;99.90;;;;;;2614312;54;20171;-70
2022/09/24 16:35:40;;;;;;;21.17;18.97;;;14.90;99.90;;;;;;2610831;47;21520;-71
2022/09/24 16:45:06;;;;;;;19.33;17.63;;;14.90;99.90;;;;;;2611629;54;20403;-73
2022/09/24 16:50:54;;;;;;;21.97;18.27;;;14.80;99.90;;;;;;2612433;39;21033;-70
2022/09/24 16:56:41;;;;;;;24.60;22.20;;;14.70;99.90;;;;;;2612124;54;20411;-70
2022/09/24 17:02:28;;;;;;;22.30;20.00;;;14.60;99.90;;;;;;2613142;54;20158;-72
2022/09/24 17:08:15;;;;;;;27.80;20.77;;;14.60;99.90;;;;;;2612145;54;20678;-72
2022/09/24 17:14:04;;;;;;;23.70;21.20;;;14.60;99.90;;;;;;2612196;54;20648;-73
2022/09/24 17:19:51;;;;;;;25.13;21.23;;;14.50;99.90;;;;;;2613378;39;20506;-70
2022/09/24 17:25:39;;;;;;;20.17;18.07;;;14.40;99.90;;;;;;2613565;54;20185;-71
2022/09/24 17:31:27;;;;;;;20.83;18.73;;;14.40;99.90;;;;;;2614115;54;20150;-71
2022/09/24 17:37:15;;;;;;;19.10;17.20;;;14.30;99.90;;;;;;2611122;54;20142;-73
2022/09/24 17:46:29;;;;;;;19.20;17.40;;;14.30;99.90;;;;;;2611697;54;20858;-71
2022/09/24 17:52:16;;;;;;;19.33;17.47;;;14.30;99.90;;;;;;2613417;54;20379;-71
2022/09/24 17:58:05;;;;;;;22.80;20.40;;;14.20;99.90;;;;;;2614934;39;20769;-73
2022/09/24 18:03:54;;;;;;;21.53;18.93;;;14.20;99.90;;;;;;2612679;54;20158;-71
2022/09/24 18:09:42;;;;;;;21.77;19.57;;;14.20;99.90;;;;;;2613295;54;20467;-72
2022/09/24 18:15:33;;;;;;;20.57;18.53;;;14.10;99.90;;;;;;2612199;54;20823;-72
2022/09/24 18:21:22;;;;;;;19.50;17.47;;;14.10;99.90;;;;;;2611407;54;20403;-71
2022/09/24 18:27:14;;;;;;;20.87;18.70;;;14.10;99.90;;;;;;2612050;54;20386;-72
2022/09/24 18:33:04;;;;;;;20.80;18.57;;;14.00;99.90;;;;;;2613570;54;20126;-72
2022/09/24 18:38:52;;;;;;;20.97;18.77;;;13.90;99.90;;;;;;2614508;54;20398;-72
2022/09/24 18:41:56;;;;;;;22.53;20.23;;;13.90;99.90;;;;;;2614409;46;20420;-71
2022/09/24 18:44:22;;;;;;;22.83;20.50;;;13.90;99.90;;;;;;2614004;54;20468;-72
2022/09/24 18:50:09;;;;;;;23.40;21.00;;;13.90;99.90;;;;;;2614249;54;20133;-73
2022/09/24 18:56:06;;;;;;;25.20;21.23;;;13.90;99.90;;;;;;2613625;54;20134;-72
2022/09/24 19:01:54;;;;;;;23.73;21.33;;;14.00;99.90;;;;;;2613252;54;20437;-73
2022/09/24 19:07:42;;;;;;;23.43;20.97;;;13.90;99.90;;;;;;2611409;54;20126;-72
2022/09/24 19:13:30;;;;;;;25.63;23.03;;;13.90;99.90;;;;;;2614362;54;20155;-72
2022/09/24 19:19:18;;;;;;;22.87;20.40;;;13.80;99.90;;;;;;2614701;39;20792;-72
2022/09/24 19:25:06;;;;;;;25.50;21.90;;;13.80;99.90;;;;;;2613906;54;20122;-71
2022/09/24 19:30:55;;;;;;;25.00;21.60;;;13.80;99.90;;;;;;2614231;54;20410;-72
2022/09/24 19:36:42;;;;;;;22.70;20.33;;;13.80;99.90;;;;;;2613297;54;20388;-71
2022/09/24 19:46:33;;;;;;;25.73;22.53;;;13.80;99.90;;;;;;2613530;54;20391;-72
2022/09/24 19:52:21;;;;;;;25.03;21.47;;;13.70;99.90;;;;;;2614772;54;20398;-73
2022/09/24 19:55:24;;;;;;;22.70;20.30;;;13.60;99.90;;;;;;2612831;47;20407;-72
2022/09/24 19:57:49;;;;;;;21.60;19.53;;;13.60;99.90;;;;;;2612136;31;20622;-73
2022/09/24 20:03:38;;;;;;;22.30;19.87;;;13.60;99.90;;;;;;2614707;54;20170;-73
2022/09/24 20:09:25;;;;;;;23.47;19.70;;;13.60;99.90;;;;;;2614298;54;20407;-71
2022/09/24 20:15:13;;;;;;;21.40;19.20;;;13.60;99.90;;;;;;2613684;39;20540;-72
2022/09/24 20:21:06;;;;;;;20.93;18.00;;;13.50;99.90;;;;;;2614345;39;20952;-72
2022/09/24 20:32:59;;;;;;;22.17;18.70;;;13.50;99.90;;;;;;2614859;54;20490;-72
2022/09/24 20:38:47;;;;;;;22.30;20.00;;;13.40;99.90;;;;;;2611565;54;20161;-73
2022/09/24 20:42:02;;;;;;;21.03;18.80;;;13.50;99.90;;;;;;2613168;39;20814;-72
2022/09/24 20:44:29;;;;;;;24.20;19.87;;;13.50;99.90;;;;;;2612816;54;20198;-71
2022/09/24 20:50:17;;;;;;;23.27;20.77;;;13.40;99.90;;;;;;2613797;54;20515;-71
2022/09/24 20:56:05;;;;;;;21.20;18.93;;;13.50;99.90;;;;;;2613509;54;20206;-73
2022/09/24 21:01:53;;;;;;;24.37;21.70;;;13.50;99.90;;;;;;2612680;54;20342;-70
2022/09/24 21:07:41;;;;;;;25.40;22.53;;;13.50;99.90;;;;;;2613764;54;20386;-72
2022/09/24 21:13:30;;;;;;;25.43;22.70;;;13.50;99.90;;;;;;2613020;54;20382;-72
2022/09/24 21:19:17;;;;;;;22.73;19.90;;;13.50;99.90;;;;;;2613815;46;20169;-73
2022/09/24 21:25:05;;;;;;;25.70;20.60;;;13.50;99.90;;;;;;2613913;54;20130;-73
2022/09/24 21:30:58;;;;;;;25.27;20.77;;;13.50;99.90;;;;;;2612935;54;20431;-73
2022/09/24 21:36:46;;;;;;;21.90;18.93;;;13.60;99.90;;;;;;2612278;54;20960;-72
2022/09/24 21:46:33;;;;;;;23.67;19.50;;;13.50;99.90;;;;;;2613520;54;20537;-72
2022/09/24 21:52:22;;;;;;;22.10;19.57;;;13.50;99.90;;;;;;2614138;54;20415;-72
2022/09/24 21:58:10;;;;;;;23.70;18.20;;;13.50;99.90;;;;;;2614042;54;20439;-72
2022/09/24 22:04:02;;;;;;;19.63;17.67;;;13.60;99.90;;;;;;2613930;54;20130;-71
2022/09/24 22:09:49;;;;;;;19.50;17.50;;;13.50;99.90;;;;;;2614906;54;20378;-72
2022/09/24 22:15:37;;;;;;;22.63;18.80;;;13.50;99.90;;;;;;2613507;39;20541;-73
2022/09/24 22:21:26;;;;;;;19.27;17.37;;;13.50;99.90;;;;;;2613879;54;20979;-71
2022/09/24 22:27:13;;;;;;;21.67;18.97;;;13.50;99.90;;;;;;2613984;54;20403;-72
2022/09/24 22:33:01;;;;;;;23.33;17.30;;;13.50;99.90;;;;;;2614770;54;20149;-72
2022/09/24 22:38:54;;;;;;;21.13;17.40;;;13.50;99.90;;;;;;2612984;54;20182;-73
2022/09/24 22:41:58;;;;;;;21.50;16.63;;;13.50;99.90;;;;;;2613333;54;20419;-72
2022/09/24 22:44:24;;;;;;;21.87;15.70;;;13.50;99.90;;;;;;2615290;54;20903;-71
2022/09/24 22:50:12;;;;;;;21.85;15.15;;;13.40;99.90;;;;;;2614268;54;20166;-72
2022/09/24 22:56:18;;;;;;;23.25;14.55;;;13.40;99.90;;;;;;2609565;54;20390;-71
2022/09/24 23:02:06;;;;;;;20.77;11.83;;;13.40;99.90;;;;;;2613384;54;20474;-73
2022/09/24 23:07:54;;;;;;;20.05;12.43;;;13.30;99.90;;;;;;2615012;54;20134;-72
2022/09/24 23:13:44;;;;;;;22.23;12.57;;;13.30;99.90;;;;;;2613163;54;20387;-71
2022/09/24 23:19:47;;;;;;;21.67;11.47;;;13.30;99.90;;;;;;2614234;54;20383;-72
2022/09/24 23:25:34;;;;;;;12.23;10.70;;;13.30;99.90;;;;;;2612863;54;20382;-73
2022/09/24 23:34:45;;;;;;;19.40;11.53;;;13.30;99.90;;;;;;2613230;39;20476;-72
2022/09/24 23:40:33;;;;;;;21.20;13.10;;;13.30;99.90;;;;;;2613234;54;20755;-71
2022/09/24 23:49:41;;;;;;;14.47;12.40;;;13.20;99.90;;;;;;2603525;54;20514;-73
2022/09/24 23:55:28;;;;;;;13.97;11.60;;;13.20;99.90;;;;;;2613181;54;20148;-71
